Ana Sayfa
METAR-TAF:

METAR-TAF

Havaalanları :

Limon Municipal Airport

Limon, Colorado, Amerika Birleşik Devletleri

Enlem: 39-16-24N, Boylam: 103-40-00W, yükseklik: 1635 m

Güncel hava durumu gözlemi

Rapor saat 16:03 UTC de 37 dakika önce yapıldı.
Rüzgar doğu/güneydoğudan 11 kt
Sıcaklık 12°C
Nem 88%
Basınç 1026 hPa
Görüş mesafesi: 11.3 km
600 ft yükseklikte parçalı çok bulutlu
1400 ft yükseklikte parçalı çok bulutlu
2900 ft yükseklikte çok bulutlu
hafif yağmur

METAR: KLIC 191603Z AUTO 12011KT 7SM -RA BKN006 BKN014 OVC029 12/10 A3031 RMK AO2 P0000 T01170100 $

Saat: 10:40 (16:40 UTC)


TAF: eksik

4.000'den fazla havaalanı için hava durumu gözlemleri ve tahminleri (METAR ve TAF raporları).

Kullanılabilir istasyonlar harita üzerinde sarı ve kırmızı noktalarla gösterilir.

İstasyonun adını görmek için fareyi noktanın üzerinde gezdirin.

Sonrasında hava gözlem ve tahminlerini görmek için tıklayın.

Haritayı değiştirmek için: yaklaştırmak için siyah artı işaretli yeşil düğmeye ve uzaklaştırmak için de eksi işaretli düğmeye hızla tıklayın; bitişik haritalar için yeşil okları kullanın.


METAR-TAF: